Wayne, Pennsylvania
Current Conditions -  °F | °C
As of 3:20 PM on Thursday 30 Oct 2014 (Local Time) from KLOM Reporting Station
Overcast Overcast  
Wind Chill: 55°   Ceiling: 6000
Heat Index: 55°   Visibility: 10mi
Dew Point: 37°   Wind: 3mph
Humidity: 51%   Direction: 330°NNW
Pressure: 29.98"   Gusts: NA
Location:  40.04°N, 75.39°W
Report Text: KLOM 301920Z AUTO 33003KT 10SM SCT047 OVC060 13/03 A2998 RMK AO1
Loading
Personal Weather Stations






























Interactive Weather Map
Tropical Storm Tracking
New forecast layout! Learn more

10-Day Weather Forecast

Advertisements
Track Severe Weather on mobile